Time;durP1;ratioP1;P1;durP2;ratioP2;P2;SDS_P1;SDS_P2;PMS_P1;PMS_P2;Temp;Humidity;BMP_temperature;BMP_pressure;BME280_temperature;BME280_humidity;BME280_pressure;Samples;Min_cycle;Max_cycle;Signal;HPM_P1;HPM_P2
2022/01/03 00:01:40;;;;;;;1999.90;999.90;;;14.20;82.20;;;;;;4956193;28;20448;-80
2022/01/03 00:04:08;;;;;;;1999.90;999.90;;;14.20;82.20;;;;;;4989496;28;20027;-80
2022/01/03 00:06:35;;;;;;;1999.90;999.90;;;14.20;82.20;;;;;;4957480;28;20491;-80
2022/01/03 00:09:02;;;;;;;1999.90;999.90;;;14.10;82.20;;;;;;4956158;28;20047;-80
2022/01/03 00:11:28;;;;;;;1999.90;999.90;;;14.10;82.20;;;;;;4978926;28;20038;-80
2022/01/03 00:13:54;;;;;;;1999.90;999.90;;;14.10;82.20;;;;;;4983778;28;20409;-80
2022/01/03 00:16:22;;;;;;;1999.90;999.90;;;14.10;82.20;;;;;;4969647;28;20034;-80
2022/01/03 00:18:49;;;;;;;1999.90;999.90;;;14.10;82.20;;;;;;4974302;28;20500;-80
2022/01/03 00:21:16;;;;;;;1999.90;999.90;;;14.10;82.20;;;;;;4975305;28;20035;-80
2022/01/03 00:23:53;;;;;;;1999.90;999.90;;;14.10;82.30;;;;;;4974830;28;20411;-80
2022/01/03 00:26:24;;;;;;;1999.90;999.90;;;14.10;82.30;;;;;;4971177;28;20031;-80
2022/01/03 00:28:58;;;;;;;1999.90;999.90;;;14.10;82.30;;;;;;4992945;28;20499;-80
2022/01/03 00:31:35;;;;;;;1999.90;999.90;;;14.00;82.30;;;;;;5002503;28;20031;-80
2022/01/03 00:34:03;;;;;;;1999.90;999.90;;;14.00;82.30;;;;;;4971100;28;20031;-80
2022/01/03 00:36:29;;;;;;;1999.90;999.90;;;14.00;82.30;;;;;;4974964;28;20026;-80
2022/01/03 00:38:55;;;;;;;1999.90;999.90;;;14.00;82.30;;;;;;4976268;28;20032;-80
2022/01/03 00:41:22;;;;;;;1999.90;999.90;;;14.00;82.30;;;;;;4969669;28;20046;-80
2022/01/03 00:43:50;;;;;;;1999.90;999.90;;;14.00;82.40;;;;;;4994073;28;20030;-80
2022/01/03 00:46:17;;;;;;;1999.90;999.90;;;14.00;82.40;;;;;;5002513;28;20388;-80
2022/01/03 00:48:43;;;;;;;1999.90;999.90;;;14.00;82.40;;;;;;4974207;28;20023;-80
2022/01/03 00:51:11;;;;;;;1999.90;999.90;;;14.00;82.40;;;;;;4974180;28;20058;-80
2022/01/03 00:53:37;;;;;;;1999.90;999.90;;;14.00;82.40;;;;;;4989418;28;20377;-80
2022/01/03 00:56:05;;;;;;;1999.90;999.90;;;14.00;82.40;;;;;;4968558;28;20115;-80
2022/01/03 00:58:36;;;;;;;1999.90;999.90;;;14.00;82.40;;;;;;4964065;28;20023;-80
2022/01/03 01:01:05;;;;;;;1999.90;999.90;;;14.00;82.50;;;;;;4988394;28;20484;-80
2022/01/03 01:03:36;;;;;;;1999.90;999.90;;;14.00;82.50;;;;;;4989751;28;20031;-80
2022/01/03 01:06:04;;;;;;;1999.90;999.90;;;14.00;82.50;;;;;;4972465;28;20042;-80
2022/01/03 01:08:30;;;;;;;1999.90;999.90;;;14.00;82.50;;;;;;4973591;28;20035;-80
2022/01/03 01:10:56;;;;;;;1999.90;999.90;;;14.00;82.50;;;;;;4971147;28;20097;-80
2022/01/03 01:13:22;;;;;;;1999.90;999.90;;;14.00;83.30;;;;;;4989189;28;20344;-80
2022/01/03 01:15:49;;;;;;;1999.90;999.90;;;13.90;82.40;;;;;;4973353;28;20042;-80
2022/01/03 01:18:15;;;;;;;1999.90;999.90;;;13.90;82.40;;;;;;4972071;28;20050;-80
2022/01/03 01:20:41;;;;;;;1999.90;999.90;;;13.90;82.40;;;;;;4992393;28;20051;-80
2022/01/03 01:23:08;;;;;;;1999.90;999.90;;;13.90;82.50;;;;;;4966018;28;20057;-80
2022/01/03 01:28:04;;;;;;;1999.90;999.90;;;13.90;82.50;;;;;;4973096;28;20023;-80
2022/01/03 01:30:30;;;;;;;1999.90;999.90;;;13.90;82.50;;;;;;4955557;28;20031;-80
2022/01/03 01:33:07;;;;;;;1999.90;999.90;;;13.90;82.50;;;;;;4984936;28;20053;-80
2022/01/03 01:35:37;;;;;;;1999.90;999.90;;;13.90;82.50;;;;;;4971727;28;20031;-80
2022/01/03 01:38:03;;;;;;;1999.90;999.90;;;13.90;82.60;;;;;;4972831;28;20049;-80
2022/01/03 01:40:29;;;;;;;1999.90;999.90;;;13.90;82.50;;;;;;4954272;28;20046;-80
2022/01/03 01:42:56;;;;;;;1999.90;999.90;;;13.90;82.60;;;;;;5004014;28;20431;-80
2022/01/03 01:45:25;;;;;;;1999.90;999.90;;;13.80;82.50;;;;;;4972635;28;20042;-80
2022/01/03 01:47:52;;;;;;;1999.90;999.90;;;13.80;82.60;;;;;;4973000;28;20027;-80
2022/01/03 01:50:18;;;;;;;1999.90;999.90;;;13.80;82.60;;;;;;4978518;28;20106;-80
2022/01/03 01:52:45;;;;;;;1999.90;999.90;;;13.80;82.60;;;;;;4962277;28;20034;-80
2022/01/03 01:55:12;;;;;;;1999.90;999.90;;;13.80;82.60;;;;;;4985656;28;20045;-80
2022/01/03 01:57:55;;;;;;;1999.90;999.90;;;13.80;82.70;;;;;;4955226;28;20039;-80
2022/01/03 02:00:21;;;;;;;1999.90;999.90;;;13.80;82.70;;;;;;4969190;28;20039;-80
2022/01/03 02:03:06;;;;;;;1999.90;999.90;;;13.80;82.70;;;;;;4981420;28;20023;-80
2022/01/03 02:05:40;;;;;;;1999.90;999.90;;;13.70;83.40;;;;;;4972667;28;20038;-80
2022/01/03 02:08:31;;;;;;;1999.90;999.90;;;13.70;82.70;;;;;;4999306;28;20396;-80
2022/01/03 02:11:12;;;;;;;1999.90;999.90;;;13.70;82.70;;;;;;4993240;28;20042;-80
2022/01/03 02:13:39;;;;;;;1999.90;999.90;;;13.70;82.70;;;;;;4987603;28;20030;-80
2022/01/03 02:16:05;;;;;;;1999.90;999.90;;;13.70;82.70;;;;;;4968216;28;20032;-80
2022/01/03 02:18:31;;;;;;;1999.90;999.90;;;13.70;82.70;;;;;;4991012;28;20058;-80
2022/01/03 02:20:58;;;;;;;1999.90;999.90;;;13.70;82.70;;;;;;4972387;28;20062;-80
2022/01/03 02:23:24;;;;;;;1999.90;999.90;;;13.70;82.70;;;;;;4955810;28;20030;-80
2022/01/03 02:25:50;;;;;;;1999.90;999.90;;;13.70;82.70;;;;;;4982244;28;20046;-80
2022/01/03 02:28:20;;;;;;;1999.90;999.90;;;13.70;82.60;;;;;;4961349;28;20027;-80
2022/01/03 02:30:46;;;;;;;1999.90;999.90;;;13.70;82.70;;;;;;4985187;28;20050;-80
2022/01/03 02:33:12;;;;;;;1999.90;999.90;;;13.70;82.60;;;;;;4972007;28;20030;-80
2022/01/03 02:35:41;;;;;;;1999.90;999.90;;;13.70;82.60;;;;;;4999208;28;20039;-80
2022/01/03 02:38:07;;;;;;;1999.90;999.90;;;13.70;83.40;;;;;;4999620;28;20027;-80
2022/01/03 02:40:33;;;;;;;1999.90;999.90;;;13.70;82.60;;;;;;4982402;28;20046;-80
2022/01/03 02:42:59;;;;;;;1999.90;999.90;;;13.70;82.70;;;;;;4955306;28;20039;-80
2022/01/03 02:45:26;;;;;;;1999.90;999.90;;;13.70;82.60;;;;;;4971746;28;20038;-80
2022/01/03 02:47:56;;;;;;;1999.90;999.90;;;13.70;82.70;;;;;;4971344;28;20023;-80
2022/01/03 02:50:22;;;;;;;1999.90;999.90;;;13.70;82.70;;;;;;4971911;28;20031;-80
2022/01/03 02:52:49;;;;;;;1999.90;999.90;;;13.70;82.70;;;;;;4987110;28;20464;-80
2022/01/03 02:55:16;;;;;;;1999.90;999.90;;;13.70;82.70;;;;;;5000258;28;20477;-80
2022/01/03 02:57:45;;;;;;;1999.90;999.90;;;13.70;82.70;;;;;;4970656;28;20039;-80
2022/01/03 03:00:30;;;;;;;1999.90;999.90;;;13.70;82.70;;;;;;4971283;28;20023;-80
2022/01/03 03:02:56;;;;;;;1999.90;999.90;;;13.60;82.70;;;;;;4970181;28;20035;-80
2022/01/03 03:05:22;;;;;;;1999.90;999.90;;;13.70;82.70;;;;;;5002625;28;20023;-80
2022/01/03 03:07:48;;;;;;;1999.90;999.90;;;13.70;82.70;;;;;;4972063;28;20030;-80
2022/01/03 03:10:17;;;;;;;1999.90;999.90;;;13.70;82.70;;;;;;4992118;28;20030;-80
2022/01/03 03:12:43;;;;;;;1999.90;999.90;;;13.70;82.70;;;;;;4997549;28;20037;-80
2022/01/03 03:15:10;;;;;;;1999.90;999.90;;;13.70;82.80;;;;;;4971241;28;20531;-80
2022/01/03 03:17:36;;;;;;;1999.90;999.90;;;13.70;82.80;;;;;;4977262;28;20042;-80
2022/01/03 03:20:02;;;;;;;1999.90;999.90;;;13.70;82.80;;;;;;4947355;28;20039;-80
2022/01/03 03:22:29;;;;;;;1999.90;999.90;;;13.60;82.70;;;;;;4970658;28;20039;-80
2022/01/03 03:25:14;;;;;;;1999.90;999.90;;;13.60;82.70;;;;;;4984160;28;20027;-80
2022/01/03 03:27:46;;;;;;;1999.90;999.90;;;13.70;82.80;;;;;;4991799;28;20046;-80
2022/01/03 03:30:19;;;;;;;1999.90;999.90;;;13.60;82.70;;;;;;4969779;28;20388;-80
2022/01/03 03:32:45;;;;;;;1999.90;999.90;;;13.60;82.80;;;;;;4967898;28;20053;-80
2022/01/03 03:35:11;;;;;;;1999.90;999.90;;;13.60;82.70;;;;;;4962882;28;20064;-80
2022/01/03 03:37:37;;;;;;;1999.90;999.90;;;13.60;82.80;;;;;;4979121;28;20035;-80
2022/01/03 03:40:04;;;;;;;1999.90;999.90;;;13.60;82.80;;;;;;4971019;28;20054;-80
2022/01/03 03:42:30;;;;;;;1999.90;999.90;;;13.60;82.80;;;;;;4969696;28;20077;-80
2022/01/03 03:44:56;;;;;;;1999.90;999.90;;;13.60;82.80;;;;;;4971348;28;20054;-80
2022/01/03 03:47:23;;;;;;;1999.90;999.90;;;13.60;82.80;;;;;;4993404;28;20035;-80
2022/01/03 03:49:49;;;;;;;1999.90;999.90;;;13.60;82.80;;;;;;4971331;28;20031;-80
2022/01/03 03:52:15;;;;;;;1999.90;999.90;;;13.60;82.80;;;;;;4968353;28;20373;-80
2022/01/03 03:54:41;;;;;;;1999.90;999.90;;;13.60;82.80;;;;;;4970048;28;20023;-80
2022/01/03 03:57:08;;;;;;;1999.90;999.90;;;13.60;82.80;;;;;;4972905;28;20066;-80
2022/01/03 03:59:34;;;;;;;1999.90;999.90;;;13.60;82.80;;;;;;4952589;28;20049;-80
2022/01/03 04:02:00;;;;;;;1999.90;999.90;;;13.60;82.80;;;;;;4951058;28;20047;-80
2022/01/03 04:04:26;;;;;;;1999.90;999.90;;;13.60;83.60;;;;;;4950334;28;20046;-80
2022/01/03 04:06:53;;;;;;;1999.90;999.90;;;13.60;82.90;;;;;;4964701;28;20042;-79
2022/01/03 04:09:19;;;;;;;1999.90;999.90;;;13.60;82.80;;;;;;4986273;28;20492;-80
2022/01/03 04:11:45;;;;;;;1999.90;999.90;;;13.60;82.80;;;;;;4964080;28;20035;-81
2022/01/03 04:14:11;;;;;;;1999.90;999.90;;;13.60;82.80;;;;;;4998880;28;20030;-81
2022/01/03 04:16:37;;;;;;;1999.90;999.90;;;13.60;82.80;;;;;;4969760;28;20051;-81
2022/01/03 04:19:04;;;;;;;1999.90;999.90;;;13.70;82.90;;;;;;4986619;28;20047;-80
2022/01/03 04:21:30;;;;;;;1999.90;999.90;;;13.60;82.80;;;;;;5002801;28;20404;-82
2022/01/03 04:23:56;;;;;;;1999.90;999.90;;;13.70;82.80;;;;;;5003126;28;20389;-82
2022/01/03 04:26:22;;;;;;;1999.90;999.90;;;13.60;82.70;;;;;;5009730;28;20034;-81
2022/01/03 04:28:48;;;;;;;1999.90;999.90;;;13.70;82.70;;;;;;4982031;28;20030;-82
2022/01/03 04:31:15;;;;;;;1999.90;999.90;;;13.70;82.70;;;;;;5013583;28;20039;-80
2022/01/03 04:33:41;;;;;;;1999.90;999.90;;;13.70;82.70;;;;;;4976454;28;20050;-80
2022/01/03 04:36:09;;;;;;;1999.90;999.90;;;13.70;82.70;;;;;;4991995;28;20065;-82
2022/01/03 04:38:36;;;;;;;1999.90;999.90;;;13.70;82.80;;;;;;4976621;28;20425;-81
2022/01/03 04:41:02;;;;;;;1999.90;999.90;;;13.70;82.70;;;;;;4976660;28;20039;-81
2022/01/03 04:43:29;;;;;;;1999.90;999.90;;;13.70;82.70;;;;;;4983019;28;20034;-82
2022/01/03 04:45:56;;;;;;;1999.90;999.90;;;13.70;82.70;;;;;;4997615;28;20037;-81
2022/01/03 04:48:22;;;;;;;1999.90;999.90;;;13.70;82.70;;;;;;4974134;28;20031;-83
2022/01/03 04:50:49;;;;;;;1999.90;999.90;;;13.70;82.70;;;;;;4978119;28;20035;-83
2022/01/03 04:53:15;;;;;;;1999.90;999.90;;;13.70;82.70;;;;;;4972510;28;20027;-82
2022/01/03 04:55:41;;;;;;;1999.90;999.90;;;13.70;82.70;;;;;;4973812;28;20396;-81
2022/01/03 04:58:10;;;;;;;1999.90;999.90;;;13.70;82.70;;;;;;4987145;28;20054;-82
2022/01/03 05:00:37;;;;;;;1999.90;999.90;;;13.70;82.70;;;;;;4972180;28;20419;-83
2022/01/03 05:03:04;;;;;;;1999.90;999.90;;;13.70;82.80;;;;;;4974421;28;20053;-81
2022/01/03 05:05:30;;;;;;;1999.90;999.90;;;13.70;82.80;;;;;;5000531;28;20035;-80
2022/01/03 05:07:56;;;;;;;1999.90;999.90;;;13.70;82.80;;;;;;4973617;28;20034;-82
2022/01/03 05:10:22;;;;;;;1999.90;999.90;;;13.70;82.80;;;;;;4985284;28;20392;-82
2022/01/03 05:12:48;;;;;;;1999.90;999.90;;;13.70;82.80;;;;;;4973367;28;20024;-81
2022/01/03 05:15:14;;;;;;;1999.90;999.90;;;13.70;82.80;;;;;;4974887;28;20150;-80
2022/01/03 05:17:40;;;;;;;1999.90;999.90;;;13.70;82.80;;;;;;4973925;28;20035;-80
